Time;durP1;ratioP1;P1;durP2;ratioP2;P2;SDS_P1;SDS_P2;PMS_P1;PMS_P2;Temp;Humidity;BMP_temperature;BMP_pressure;BME280_temperature;BME280_humidity;BME280_pressure;Samples;Min_cycle;Max_cycle;Signal;HPM_P1;HPM_P2
2022/04/05 00:01:16;;;;;;;6.97;3.17;;;;;;;2.08;90.02;98903.28;6200187;23;20028;-64
2022/04/05 00:04:00;;;;;;;9.18;3.17;;;;;;;1.73;90.06;98836.19;6190305;23;20046;-65
2022/04/05 00:06:45;;;;;;;8.85;3.03;;;;;;;1.98;90.80;98901.53;6222418;23;20108;-64
2022/04/05 00:09:29;;;;;;;8.85;3.55;;;;;;;1.94;91.04;98901.53;6170063;23;20027;-64
2022/04/05 00:12:14;;;;;;;8.10;3.40;;;;;;;2.02;91.48;98912.88;6189915;23;20153;-68
2022/04/05 00:14:58;;;;;;;7.32;3.00;;;;;;;2.14;90.92;98905.88;6190593;23;20149;-66
2022/04/05 00:17:43;;;;;;;7.25;3.17;;;;;;;2.16;90.13;98909.38;6169604;23;20473;-65
2022/04/05 00:20:27;;;;;;;7.80;2.90;;;;;;;2.20;90.77;98903.28;6189759;23;20027;-64
2022/04/05 00:23:12;;;;;;;9.77;3.17;;;;;;;2.43;89.61;98893.66;6211227;23;20046;-64
2022/04/05 00:25:56;;;;;;;6.43;2.80;;;;;;;2.52;88.18;98900.59;6211089;23;20032;-63
2022/04/05 00:28:41;;;;;;;8.18;2.95;;;;;;;2.37;88.26;98890.19;6222313;23;20255;-63
2022/04/05 00:31:25;;;;;;;6.17;3.47;;;;;;;2.35;87.97;98902.38;6177713;23;20067;-64
2022/04/05 00:34:10;;;;;;;8.45;2.30;;;;;;;2.48;88.53;98888.38;6212879;23;20852;-63
2022/04/05 00:36:56;;;;;;;17.43;3.77;;;;;;;2.66;87.87;98904.06;6168796;23;20079;-65
2022/04/05 00:39:41;;;;;;;11.13;4.18;;;;;;;2.86;86.88;98891.78;6189074;23;20262;-64
2022/04/05 00:42:25;;;;;;;13.60;4.15;;;;;;;3.15;85.25;98897.75;6166852;23;20031;-64
2022/04/05 00:45:10;;;;;;;8.32;3.53;;;;;;;3.27;84.68;98898.56;6188859;23;20078;-64
2022/04/05 00:47:55;;;;;;;9.05;3.40;;;;;;;3.35;85.32;98904.63;6200405;23;20367;-64
2022/04/05 00:50:39;;;;;;;9.70;2.97;;;;;;;3.40;84.58;98902.00;6209581;23;20027;-62
2022/04/05 00:53:28;;;;;;;7.25;3.03;;;;;;;3.40;84.81;98904.63;6213232;23;20067;-64
2022/04/05 00:56:15;;;;;;;7.57;3.90;;;;;;;3.44;83.75;98907.19;6213730;23;20054;-64
2022/04/05 00:59:02;;;;;;;9.05;3.03;;;;;;;3.46;83.32;98899.34;6191904;23;20028;-64
2022/04/05 01:01:47;;;;;;;10.00;3.10;;;;;;;3.14;82.52;98881.19;6225571;23;20027;-64
2022/04/05 01:04:33;;;;;;;10.17;2.90;;;;;;;3.16;84.15;98889.00;6224157;23;20477;-63
2022/04/05 01:07:22;;;;;;;7.93;2.95;;;;;;;3.23;85.79;98890.72;6225082;23;20744;-64
2022/04/05 01:10:07;;;;;;;9.35;2.80;;;;;;;3.26;86.32;98872.38;6222454;23;20429;-63
2022/04/05 01:12:51;;;;;;;7.80;3.10;;;;;;;3.31;86.18;98881.06;6222129;23;20031;-63
2022/04/05 01:15:37;;;;;;;7.22;2.40;;;;;;;3.04;85.99;98874.25;6213522;23;20035;-64
2022/04/05 01:18:22;;;;;;;14.75;3.50;;;;;;;3.10;86.75;98871.59;6221083;23;20032;-63
2022/04/05 01:21:06;;;;;;;14.57;3.30;;;;;;;3.32;87.11;98872.38;6217134;23;20204;-64
2022/04/05 01:24:23;;;;;;;7.38;2.88;;;;;;;3.18;84.80;98877.69;6218746;23;20071;-64
2022/04/05 01:27:07;;;;;;;9.35;2.65;;;;;;;2.60;84.80;98880.50;6106434;23;20032;-68
2022/04/05 01:29:52;;;;;;;11.07;2.60;;;;;;;2.39;86.36;98847.44;6128121;23;20033;-64
2022/04/05 01:32:37;;;;;;;10.27;2.35;;;;;;;1.74;86.92;98770.88;6125677;23;20077;-64
2022/04/05 01:35:22;;;;;;;8.15;3.17;;;;;;;2.43;87.68;98871.84;6118377;23;20587;-64
2022/04/05 01:38:10;;;;;;;8.43;2.77;;;;;;;2.25;88.29;98867.50;6126692;23;20064;-63
2022/04/05 01:40:57;;;;;;;7.80;2.92;;;;;;;2.39;88.69;98870.09;6127771;23;20383;-63
2022/04/05 01:43:41;;;;;;;9.93;2.85;;;;;;;2.81;88.96;98868.22;6107359;23;20037;-64
2022/04/05 01:46:26;;;;;;;12.02;3.75;;;;;;;3.07;88.31;98874.22;6095754;23;20033;-70
2022/04/05 01:49:13;;;;;;;19.90;3.70;;;;;;;3.26;87.59;98860.16;6107104;23;20088;-64
2022/04/05 01:51:57;;;;;;;20.05;4.55;;;;;;;3.48;87.08;98879.25;6115548;23;20052;-62
2022/04/05 01:54:41;;;;;;;28.33;5.07;;;;;;;3.52;85.67;98868.72;6128028;23;20049;-64
2022/04/05 01:57:26;;;;;;;20.30;4.13;;;;;;;3.40;84.44;98852.22;6118217;23;20722;-64
2022/04/05 02:00:14;;;;;;;23.13;4.72;;;;;;;3.44;84.19;98872.28;6086949;23;20033;-64
2022/04/05 02:02:59;;;;;;;28.27;4.22;;;;;;;3.47;85.17;98872.25;6195446;23;20028;-64
2022/04/05 02:05:46;;;;;;;27.88;4.95;;;;;;;3.61;85.37;98854.69;6206080;23;20525;-66
2022/04/05 02:08:30;;;;;;;28.95;5.15;;;;;;;3.24;84.43;98829.63;6215725;23;20031;-64
2022/04/05 02:11:16;;;;;;;26.88;4.35;;;;;;;3.26;84.82;98864.53;6204285;23;20126;-65
2022/04/05 02:14:03;;;;;;;16.25;3.72;;;;;;;3.18;86.97;98858.47;6166712;23;20031;-65
2022/04/05 02:16:48;;;;;;;27.23;5.25;;;;;;;3.02;86.95;98831.50;6218134;23;20032;-63
2022/04/05 02:19:36;;;;;;;14.65;3.70;;;;;;;2.99;87.83;98857.69;6206179;23;20055;-70
2022/04/05 02:22:21;;;;;;;9.45;3.00;;;;;;;2.63;88.61;98849.09;6197226;23;20082;-64
2022/04/05 02:25:09;;;;;;;9.30;2.95;;;;;;;2.46;90.27;98853.53;6218281;23;20031;-64
2022/04/05 02:27:57;;;;;;;8.02;3.40;;;;;;;2.40;90.95;98843.06;6186069;23;20090;-65
2022/04/05 02:30:49;;;;;;;4.22;2.80;;;;;;;2.20;92.25;98843.13;6188511;23;20446;-64
2022/04/05 02:33:37;;;;;;;7.57;3.40;;;;;;;2.01;94.35;98840.56;6208725;23;20481;-63
2022/04/05 02:36:26;;;;;;;5.22;3.20;;;;;;;1.94;95.30;98823.97;6188973;23;20367;-63
2022/04/05 02:39:14;;;;;;;5.82;3.00;;;;;;;1.94;96.46;98849.28;6189464;23;20070;-62
2022/04/05 02:41:59;;;;;;;8.70;3.55;;;;;;;2.01;96.28;98841.41;6210055;23;20066;-71
2022/04/05 02:44:44;;;;;;;7.22;3.28;;;;;;;1.75;96.84;98839.69;6199243;23;20134;-63
2022/04/05 02:47:30;;;;;;;8.15;2.90;;;;;;;1.69;97.98;98837.06;6220938;23;20091;-65
2022/04/05 02:50:18;;;;;;;8.25;3.13;;;;;;;1.68;99.73;98835.31;6215274;23;20063;-63
2022/04/05 02:53:05;;;;;;;8.82;3.22;;;;;;;1.67;100.00;98836.22;6172154;23;20078;-63
2022/04/05 02:55:52;;;;;;;3.40;2.50;;;;;;;1.62;100.00;98832.72;6202622;23;20473;-63
2022/04/05 02:58:37;;;;;;;8.20;2.90;;;;;;;1.57;100.00;98831.84;6178661;23;20027;-68
2022/04/05 03:01:23;;;;;;;5.50;2.75;;;;;;;1.45;100.00;98826.59;6165544;23;20108;-67
2022/04/05 03:04:08;;;;;;;5.15;2.90;;;;;;;1.54;100.00;98832.72;6148205;23;20112;-64
2022/04/05 03:06:53;;;;;;;4.68;2.00;;;;;;;1.47;100.00;98822.28;6188265;23;20099;-66
2022/04/05 03:09:39;;;;;;;6.30;2.17;;;;;;;1.38;100.00;98820.50;6168176;23;20055;-65
2022/04/05 03:12:25;;;;;;;5.93;2.50;;;;;;;1.28;100.00;98815.28;6147186;23;20403;-64
2022/04/05 03:15:11;;;;;;;6.50;2.25;;;;;;;1.39;100.00;98832.72;6197518;23;20075;-66
2022/04/05 03:17:58;;;;;;;4.85;2.42;;;;;;;1.38;100.00;98830.09;6146709;23;20112;-70
2022/04/05 03:20:46;;;;;;;6.22;2.28;;;;;;;1.08;100.00;98797.00;6165148;23;20058;-64
2022/04/05 03:23:31;;;;;;;3.33;1.98;;;;;;;1.32;100.00;98830.97;6198223;23;20071;-65
2022/04/05 03:26:15;;;;;;;13.50;2.38;;;;;;;1.22;100.00;98828.34;6198550;23;20263;-65
2022/04/05 03:29:01;;;;;;;8.73;2.20;;;;;;;1.31;100.00;98829.22;6198521;23;20032;-65
2022/04/05 03:31:46;;;;;;;4.95;2.45;;;;;;;1.48;100.00;98824.88;6198640;23;20103;-65
2022/04/05 03:34:30;;;;;;;8.03;3.07;;;;;;;1.63;100.00;98822.28;6196285;23;20031;-69
2022/04/05 03:37:16;;;;;;;10.15;3.90;;;;;;;1.46;100.00;98816.16;6167464;23;20032;-65
2022/04/05 03:40:02;;;;;;;8.75;3.88;;;;;;;1.52;100.00;98818.78;6175140;23;20054;-65
2022/04/05 03:42:48;;;;;;;10.48;4.93;;;;;;;1.74;100.00;98814.44;6177856;23;20482;-64
2022/04/05 03:45:33;;;;;;;9.07;4.28;;;;;;;1.80;100.00;98803.97;6198751;23;20075;-63
2022/04/05 03:48:19;;;;;;;10.48;5.10;;;;;;;1.69;100.00;98784.81;6220784;23;20085;-69
2022/04/05 03:51:09;;;;;;;13.63;5.78;;;;;;;1.92;100.00;98804.84;6207285;23;20035;-64
2022/04/05 03:53:55;;;;;;;13.77;6.20;;;;;;;2.07;100.00;98815.28;6218417;23;20051;-64
2022/04/05 03:56:41;;;;;;;11.45;5.18;;;;;;;1.87;100.00;98810.94;6209602;23;20082;-65
2022/04/05 03:59:26;;;;;;;19.02;5.00;;;;;;;2.03;100.00;98815.28;6219286;23;20457;-63
2022/04/05 04:02:11;;;;;;;9.93;4.05;;;;;;;1.79;100.00;98826.63;6216644;23;20063;-65
2022/04/05 04:04:56;;;;;;;14.95;5.25;;;;;;;1.59;100.00;98828.38;6206682;23;20079;-66
2022/04/05 04:07:43;;;;;;;12.15;4.25;;;;;;;1.48;100.00;98830.13;6214377;23;20035;-66
2022/04/05 04:10:28;;;;;;;8.95;4.03;;;;;;;1.42;100.00;98826.63;6205220;23;20397;-66
2022/04/05 04:13:16;;;;;;;7.50;3.47;;;;;;;1.52;100.00;98830.97;6213847;23;20382;-67
2022/04/05 04:16:04;;;;;;;9.40;2.83;;;;;;;1.37;100.00;98829.22;6190360;23;20530;-64
2022/04/05 04:18:51;;;;;;;6.22;2.70;;;;;;;1.41;100.00;98812.69;6191087;23;20059;-64
2022/04/05 04:21:36;;;;;;;10.30;2.83;;;;;;;1.58;100.00;98823.16;6192519;23;20054;-67
2022/04/05 04:24:22;;;;;;;7.78;2.75;;;;;;;1.56;100.00;98815.31;6193138;23;20422;-65
2022/04/05 04:27:06;;;;;;;8.88;2.67;;;;;;;1.66;100.00;98824.03;6191433;23;20023;-65
2022/04/05 04:29:52;;;;;;;6.75;2.67;;;;;;;1.53;100.00;98817.03;6223559;23;20040;-64
2022/04/05 04:32:37;;;;;;;6.68;2.35;;;;;;;1.51;100.00;98817.06;6223092;23;20027;-65
2022/04/05 04:35:21;;;;;;;3.97;2.10;;;;;;;1.65;100.00;98809.19;6213674;23;20186;-65
2022/04/05 04:38:09;;;;;;;5.73;2.43;;;;;;;1.76;100.00;98820.53;6214752;23;20075;-63
2022/04/05 04:40:53;;;;;;;5.28;2.28;;;;;;;1.38;100.00;98742.19;6223480;23;20031;-64
2022/04/05 04:43:37;;;;;;;6.95;2.55;;;;;;;1.79;100.00;98810.06;6225029;23;20094;-66
2022/04/05 04:46:22;;;;;;;9.93;2.80;;;;;;;1.87;100.00;98813.56;6192619;23;20051;-65
2022/04/05 04:49:06;;;;;;;3.67;2.35;;;;;;;1.91;100.00;98816.16;6225163;23;20518;-64
2022/04/05 04:51:51;;;;;;;4.32;2.40;;;;;;;1.93;100.00;98816.19;6223677;23;20071;-71
2022/04/05 04:54:35;;;;;;;6.25;2.50;;;;;;;2.05;100.00;98819.63;6224774;23;20566;-66
2022/04/05 04:57:21;;;;;;;11.63;2.75;;;;;;;2.03;100.00;98812.66;6202844;23;20043;-72
2022/04/05 05:00:07;;;;;;;6.00;2.40;;;;;;;2.10;100.00;98809.16;6223334;23;20031;-68
2022/04/05 05:02:52;;;;;;;8.27;2.45;;;;;;;2.11;100.00;98809.16;6224130;23;20031;-66
2022/04/05 05:05:36;;;;;;;8.35;2.95;;;;;;;1.63;100.00;98698.63;6224456;23;20031;-66
2022/04/05 05:08:21;;;;;;;6.95;3.78;;;;;;;2.08;100.00;98745.53;6223891;23;20040;-65
2022/04/05 05:11:05;;;;;;;5.13;2.27;;;;;;;2.23;100.00;98772.53;6200723;23;20094;-64
2022/04/05 05:13:49;;;;;;;11.13;2.90;;;;;;;2.64;100.00;98808.97;6170758;23;20279;-64
2022/04/05 05:16:34;;;;;;;5.57;2.93;;;;;;;2.73;100.00;98809.81;6223373;23;20147;-64
2022/04/05 05:19:18;;;;;;;6.45;2.67;;;;;;;2.63;100.00;98791.53;6224686;23;20650;-66
2022/04/05 05:22:03;;;;;;;9.90;2.83;;;;;;;2.69;100.00;98804.63;6192264;23;20363;-63
2022/04/05 05:24:47;;;;;;;7.88;2.67;;;;;;;2.76;100.00;98799.34;6212457;23;20115;-66
2022/04/05 05:27:32;;;;;;;6.20;2.50;;;;;;;2.94;100.00;98806.22;6227951;23;20351;-63
2022/04/05 05:30:16;;;;;;;6.95;2.90;;;;;;;2.78;100.00;98813.31;6223503;23;20032;-64
2022/04/05 05:33:00;;;;;;;4.80;2.53;;;;;;;2.78;100.00;98804.56;6191740;23;20058;-64
2022/04/05 05:35:45;;;;;;;6.07;2.78;;;;;;;2.87;100.00;98805.41;6191136;23;20486;-64
2022/04/05 05:38:29;;;;;;;4.65;2.55;;;;;;;3.02;100.00;98799.19;6200866;23;20070;-66
2022/04/05 05:41:14;;;;;;;7.43;2.60;;;;;;;3.13;100.00;98805.25;6221869;23;20027;-65
2022/04/05 05:43:58;;;;;;;4.70;2.97;;;;;;;3.03;100.00;98801.81;6190638;23;20034;-64
2022/04/05 05:46:43;;;;;;;7.03;2.67;;;;;;;3.18;100.00;98795.59;6223273;23;20079;-65
2022/04/05 05:49:27;;;;;;;6.63;2.63;;;;;;;3.16;100.00;98811.31;6223987;23;20127;-68
2022/04/05 05:52:12;;;;;;;10.32;2.60;;;;;;;3.00;100.00;98780.00;6222875;23;20044;-67
2022/04/05 05:54:56;;;;;;;6.47;3.13;;;;;;;3.24;100.00;98801.66;6222457;23;20461;-64
2022/04/05 05:57:41;;;;;;;7.75;3.00;;;;;;;3.31;100.00;98799.88;6171061;23;20104;-64
2022/04/05 06:00:25;;;;;;;6.22;2.85;;;;;;;3.36;100.00;98798.13;6214261;23;20489;-66
2022/04/05 06:03:10;;;;;;;5.73;2.73;;;;;;;3.38;100.00;98791.09;6221794;23;20343;-64
2022/04/05 06:05:55;;;;;;;4.65;2.53;;;;;;;3.46;100.00;98784.94;6190135;23;20267;-65
2022/04/05 06:08:40;;;;;;;6.15;2.75;;;;;;;3.67;100.00;98797.84;6224884;23;20363;-65
2022/04/05 06:11:25;;;;;;;7.22;2.88;;;;;;;3.56;100.00;98778.72;6225446;23;20122;-65
2022/04/05 06:14:10;;;;;;;4.00;2.65;;;;;;;3.48;100.00;98766.59;6225784;23;20489;-65
2022/04/05 06:16:54;;;;;;;7.75;2.78;;;;;;;3.80;100.00;98806.50;6224329;23;20418;-65
2022/04/05 06:19:39;;;;;;;8.52;3.13;;;;;;;3.79;100.00;98784.66;6213807;23;20419;-65
2022/04/05 06:22:24;;;;;;;4.70;2.80;;;;;;;3.89;100.00;98785.44;6226329;23;20032;-66
2022/04/05 06:25:11;;;;;;;5.65;3.00;;;;;;;3.85;100.00;98775.84;6226318;23;20059;-66
2022/04/05 06:27:56;;;;;;;5.97;2.60;;;;;;;3.79;100.00;98765.41;6214349;23;20078;-65
2022/04/05 06:30:41;;;;;;;6.78;2.75;;;;;;;3.78;100.00;98732.22;6204060;23;20103;-65
2022/04/05 06:33:25;;;;;;;5.03;2.80;;;;;;;4.05;99.71;98781.78;6246704;23;20469;-66
2022/04/05 06:36:09;;;;;;;4.82;2.42;;;;;;;4.04;98.67;98735.47;6172587;23;20298;-66
2022/04/05 06:38:54;;;;;;;5.00;2.60;;;;;;;4.40;97.85;98762.13;6203644;23;20088;-67
2022/04/05 06:41:38;;;;;;;7.47;3.20;;;;;;;4.53;97.27;98771.63;6226805;23;20293;-68
2022/04/05 06:44:23;;;;;;;5.13;2.70;;;;;;;4.74;96.85;98770.47;6194048;23;20032;-65
2022/04/05 06:47:10;;;;;;;6.85;2.80;;;;;;;5.03;93.95;98776.22;6217057;23;20313;-66
2022/04/05 06:49:54;;;;;;;7.28;2.42;;;;;;;5.20;92.42;98753.19;6215952;23;20447;-67
2022/04/05 06:52:41;;;;;;;5.30;2.43;;;;;;;5.45;90.86;98770.31;6203624;23;20031;-67
2022/04/05 06:55:27;;;;;;;7.03;2.95;;;;;;;5.50;89.74;98760.56;6193571;23;20359;-65
2022/04/05 06:58:11;;;;;;;5.70;2.60;;;;;;;5.50;89.14;98772.88;6215022;23;20028;-64
2022/04/05 07:00:55;;;;;;;3.75;2.50;;;;;;;5.51;88.43;98764.09;6226211;23;20070;-65
2022/04/05 07:03:40;;;;;;;6.28;2.67;;;;;;;5.59;88.51;98755.19;6203697;23;20031;-65
2022/04/05 07:06:24;;;;;;;7.00;2.80;;;;;;;5.42;87.83;98725.66;6215505;23;20051;-65
2022/04/05 07:09:09;;;;;;;11.93;3.20;;;;;;;5.77;87.39;98760.13;6215921;23;20111;-65
2022/04/05 07:11:53;;;;;;;4.95;3.08;;;;;;;5.84;86.38;98751.28;6214377;23;20082;-65
2022/04/05 07:14:37;;;;;;;8.27;2.70;;;;;;;5.94;85.40;98759.88;6224040;23;20062;-66
2022/04/05 07:17:22;;;;;;;5.00;2.92;;;;;;;5.91;85.48;98738.88;6193324;23;20563;-65
2022/04/05 07:20:09;;;;;;;7.93;3.20;;;;;;;5.99;83.94;98760.66;6203426;23;20587;-65
2022/04/05 07:22:54;;;;;;;7.13;3.33;;;;;;;6.21;82.53;98740.94;6192181;23;20079;-65
2022/04/05 07:25:38;;;;;;;4.53;2.60;;;;;;;6.11;82.97;98740.25;6193254;23;20035;-65
2022/04/05 07:28:23;;;;;;;6.38;2.90;;;;;;;6.12;83.74;98738.47;6213866;23;20027;-70
2022/04/05 07:31:07;;;;;;;5.95;2.78;;;;;;;6.24;83.03;98746.13;6224834;23;20394;-66
2022/04/05 07:33:51;;;;;;;5.95;2.65;;;;;;;6.19;82.29;98750.63;6224466;23;20027;-66
2022/04/05 07:36:36;;;;;;;4.20;2.90;;;;;;;6.28;82.25;98750.44;6215151;23;20074;-65
2022/04/05 07:39:22;;;;;;;6.77;3.17;;;;;;;6.51;81.01;98725.41;6225591;23;20319;-67
2022/04/05 07:42:08;;;;;;;4.80;2.70;;;;;;;6.80;78.38;98727.44;6214187;23;20255;-65
2022/04/05 07:44:53;;;;;;;5.47;2.58;;;;;;;7.26;75.58;98693.84;6192688;23;20055;-66
2022/04/05 07:47:38;;;;;;;6.38;3.30;;;;;;;7.38;73.19;98719.91;6214155;23;20031;-66
2022/04/05 07:50:23;;;;;;;15.23;3.45;;;;;;;7.71;70.06;98719.09;6225769;23;20075;-66
2022/04/05 07:53:07;;;;;;;5.10;2.73;;;;;;;8.14;68.26;98728.50;6203408;23;20078;-65
2022/04/05 07:55:54;;;;;;;5.32;2.63;;;;;;;8.34;64.96;98730.59;6171972;23;20379;-65
2022/04/05 07:58:43;;;;;;;5.93;3.20;;;;;;;8.52;62.70;98717.78;6225671;23;20169;-65
2022/04/05 08:01:29;;;;;;;4.43;3.08;;;;;;;8.91;58.07;98686.66;6202516;23;20043;-65
2022/04/05 08:04:13;;;;;;;5.45;3.30;;;;;;;8.91;60.29;98716.59;6202728;23;20058;-66
2022/04/05 08:06:58;;;;;;;8.68;3.13;;;;;;;8.80;59.50;98683.47;6225117;23;20390;-64
2022/04/05 08:09:42;;;;;;;5.03;3.30;;;;;;;8.77;60.27;98716.13;6225450;23;20118;-65
2022/04/05 08:12:35;;;;;;;5.22;2.85;;;;;;;8.88;57.29;98687.63;6225548;23;20350;-64
2022/04/05 08:15:21;;;;;;;7.65;3.20;;;;;;;9.22;55.22;98713.88;6202495;23;20166;-64
2022/04/05 08:18:06;;;;;;;7.97;2.90;;;;;;;10.44;49.81;98699.97;6171804;23;20514;-65
2022/04/05 08:20:50;;;;;;;5.05;2.80;;;;;;;10.25;47.76;98714.81;6225076;23;20382;-65
2022/04/05 08:23:35;;;;;;;6.20;2.93;;;;;;;10.83;45.60;98700.25;6203064;23;20095;-66
2022/04/05 08:26:19;;;;;;;5.68;3.25;;;;;;;10.23;48.29;98700.75;6194659;23;20489;-65
2022/04/05 08:29:03;;;;;;;8.35;2.97;;;;;;;10.38;44.17;98697.56;6193583;23;20304;-65
2022/04/05 08:31:48;;;;;;;6.65;3.00;;;;;;;10.58;44.19;98694.16;6202697;23;20051;-64
2022/04/05 08:34:33;;;;;;;4.78;2.63;;;;;;;11.15;41.78;98713.19;6224623;23;20063;-65
2022/04/05 08:37:17;;;;;;;;;;;;;;;11.52;41.12;98698.34;6202021;23;20031;-65
2022/04/05 08:40:06;;;;;;;5.93;2.80;;;;;;;10.79;41.33;98703.94;6191969;23;19962;-65
2022/04/05 08:42:55;;;;;;;8.90;2.75;;;;;;;11.12;41.42;98706.16;6202292;23;20031;-65
2022/04/05 08:45:45;;;;;;;4.35;2.95;;;;;;;11.32;41.31;98703.59;6214737;23;20415;-65
2022/04/05 08:48:30;;;;;;;4.47;2.30;;;;;;;11.71;40.00;98678.13;6224776;23;20072;-65
2022/04/05 08:51:14;;;;;;;;;;;;;;;12.23;37.32;98695.38;6209233;23;20374;-68
2022/04/05 08:53:58;;;;;;;3.40;2.65;;;;;;;12.32;35.96;98676.34;6192055;23;20341;-67
2022/04/05 08:56:43;;;;;;;5.97;2.83;;;;;;;12.87;34.10;98670.25;6171266;23;20031;-66
2022/04/05 08:59:31;;;;;;;5.10;2.50;;;;;;;12.28;32.47;98691.59;6223818;23;20028;-65
2022/04/05 09:02:24;;;;;;;3.08;2.20;;;;;;;10.57;36.79;98668.59;6214416;23;20035;-64
2022/04/05 09:05:44;;;;;;;4.85;2.53;;;;;;;9.81;41.45;98677.53;6224819;23;20031;-64
2022/04/05 09:08:28;;;;;;;6.47;2.88;;;;;;;9.44;45.00;98641.72;6224261;23;20528;-63
2022/04/05 09:11:13;;;;;;;3.20;2.13;;;;;;;9.49;40.52;98676.81;6224362;23;20486;-63
2022/04/05 09:14:00;;;;;;;3.92;2.10;;;;;;;9.10;42.83;98670.16;6223409;23;20765;-64
2022/04/05 09:16:45;;;;;;;3.80;2.20;;;;;;;9.97;41.32;98660.19;6224380;23;20158;-64
2022/04/05 09:19:43;;;;;;;5.50;2.60;;;;;;;9.95;40.75;98677.88;6213050;23;20036;-65
2022/04/05 09:22:35;;;;;;;2.95;2.10;;;;;;;9.69;42.42;98656.75;6221584;23;20028;-63
2022/04/05 09:25:21;;;;;;;3.75;2.50;;;;;;;10.86;39.14;98668.31;6221456;23;20031;-65
2022/04/05 09:28:06;;;;;;;5.65;2.85;;;;;;;11.98;38.00;98661.00;6222733;23;20031;-65
2022/04/05 09:30:51;;;;;;;;;;;;;;;12.34;35.35;98650.59;6220501;23;20469;-65
2022/04/05 09:33:41;;;;;;;5.55;2.90;;;;;;;12.70;34.87;98656.88;6220995;23;19919;-65
2022/04/05 09:36:34;;;;;;;4.25;2.47;;;;;;;13.43;33.87;98681.75;6223650;23;20118;-65
2022/04/05 09:39:21;;;;;;;4.07;2.70;;;;;;;12.42;33.75;98667.06;6226955;23;20071;-65
2022/04/05 09:42:08;;;;;;;4.30;2.47;;;;;;;11.74;34.88;98619.56;6217796;23;20059;-67
2022/04/05 09:44:53;;;;;;;6.65;2.33;;;;;;;11.40;35.88;98621.03;6226040;23;20079;-66
2022/04/05 09:47:37;;;;;;;3.42;2.22;;;;;;;12.65;33.94;98624.28;6215187;23;20075;-65
2022/04/05 09:50:22;;;;;;;3.97;2.40;;;;;;;11.94;34.66;98627.53;6226272;23;20070;-65
2022/04/05 09:53:06;;;;;;;3.63;2.40;;;;;;;11.82;35.02;98628.06;6226277;23;20035;-65
2022/04/05 09:56:09;;;;;;;4.72;2.47;;;;;;;11.97;35.57;98624.75;6227312;23;20338;-64
2022/04/05 09:59:06;;;;;;;4.32;2.15;;;;;;;11.64;36.16;98622.69;6213987;23;20470;-65
2022/04/05 10:01:56;;;;;;;4.45;2.03;;;;;;;10.51;38.53;98613.13;6222075;23;20119;-66
2022/04/05 10:05:09;;;;;;;6.47;2.40;;;;;;;10.55;39.62;98623.56;6215647;23;20108;-65
2022/04/05 10:07:55;;;;;;;5.00;2.35;;;;;;;9.93;42.28;98626.78;6152016;23;20087;-64
2022/04/05 10:10:41;;;;;;;4.47;2.10;;;;;;;9.63;43.10;98614.63;6226261;23;20062;-66
2022/04/05 10:13:27;;;;;;;3.92;2.13;;;;;;;9.99;44.68;98615.97;6193407;23;20083;-66
2022/04/05 10:16:13;;;;;;;3.63;2.20;;;;;;;9.72;44.50;98625.75;6172773;23;20028;-65
2022/04/05 10:19:04;;;;;;;4.78;1.98;;;;;;;9.67;43.69;98618.88;6224180;23;20111;-66
2022/04/05 10:21:49;;;;;;;4.75;2.05;;;;;;;9.75;43.01;98585.06;6181181;23;20079;-65
2022/04/05 10:24:34;;;;;;;2.30;1.98;;;;;;;10.30;43.51;98596.28;6212163;23;20027;-66
2022/04/05 10:27:21;;;;;;;5.47;2.22;;;;;;;9.97;44.02;98600.13;6223925;23;20032;-64
2022/04/05 10:30:42;;;;;;;3.83;2.00;;;;;;;10.30;44.88;98592.75;6201599;23;20051;-65
2022/04/05 10:34:00;;;;;;;4.53;2.25;;;;;;;10.81;42.99;98561.59;6102427;23;20134;-64
2022/04/05 10:37:04;;;;;;;3.17;2.10;;;;;;;10.26;44.00;98588.50;6081497;23;20541;-65
2022/04/05 10:39:57;;;;;;;3.67;2.40;;;;;;;10.85;43.89;98590.59;6072111;23;20118;-65
2022/04/05 10:42:48;;;;;;;4.22;2.28;;;;;;;9.97;43.04;98512.75;6103368;23;20062;-67
2022/04/05 10:45:43;;;;;;;6.05;2.00;;;;;;;10.44;43.58;98588.66;6103933;23;20089;-68
2022/04/05 10:48:31;;;;;;;3.22;1.90;;;;;;;9.62;43.71;98607.59;6109998;23;20081;-67
2022/04/05 10:51:30;;;;;;;3.60;2.00;;;;;;;9.16;48.50;98587.13;6123223;23;20050;-65
2022/04/05 10:54:19;;;;;;;4.47;2.53;;;;;;;9.51;50.56;98584.16;6113489;23;20073;-67
2022/04/05 10:57:21;;;;;;;4.53;2.22;;;;;;;9.38;48.26;98583.72;6113365;23;20519;-66
2022/04/05 11:00:12;;;;;;;2.90;2.28;;;;;;;9.58;50.88;98572.44;6100633;23;20275;-66
2022/04/05 11:02:59;;;;;;;3.35;2.15;;;;;;;9.84;47.47;98598.00;6112440;23;20033;-66
2022/04/05 11:05:44;;;;;;;5.60;2.75;;;;;;;9.65;46.94;98566.00;6082006;23;20036;-67
2022/04/05 11:15:07;;;;;;;5.72;2.00;;;;;;;9.07;48.48;98587.44;6208608;22;20496;-65
2022/04/05 11:17:53;;;;;;;6.47;2.40;;;;;;;8.80;54.78;98565.41;6202124;23;20170;-72
2022/04/05 11:20:41;;;;;;;3.65;2.30;;;;;;;8.68;55.04;98562.28;6171405;23;20054;-66
2022/04/05 11:23:47;;;;;;;5.95;2.40;;;;;;;8.36;54.87;98539.53;6225516;23;20055;-66
2022/04/05 11:26:35;;;;;;;5.70;2.28;;;;;;;8.09;55.90;98542.09;6201578;23;20426;-65
2022/04/05 11:29:21;;;;;;;3.85;2.58;;;;;;;8.33;54.71;98557.22;6224573;23;20027;-65
2022/04/05 11:32:22;;;;;;;2.88;1.98;;;;;;;8.30;53.37;98563.47;6212724;23;20026;-66
2022/04/05 11:35:30;;;;;;;2.95;2.00;;;;;;;7.78;56.88;98557.06;6210250;23;20054;-66
2022/04/05 11:38:18;;;;;;;4.00;2.55;;;;;;;7.31;60.19;98510.03;6167497;23;20062;-67
2022/04/05 11:41:21;;;;;;;3.58;2.13;;;;;;;7.55;62.87;98563.00;6212129;23;20090;-65
2022/04/05 11:44:47;;;;;;;5.60;2.35;;;;;;;7.56;65.89;98548.03;6212480;22;20031;-67
2022/04/05 11:48:00;;;;;;;4.20;2.53;;;;;;;7.48;65.05;98561.41;6162599;23;20532;-64
2022/04/05 11:50:46;;;;;;;3.53;2.15;;;;;;;7.15;67.12;98569.34;6191217;23;20095;-64
2022/04/05 11:53:31;;;;;;;7.55;2.75;;;;;;;7.20;69.66;98549.88;6171883;23;20367;-64
2022/04/05 11:56:24;;;;;;;4.35;2.53;;;;;;;7.40;69.59;98538.81;6140412;23;20484;-65
2022/04/05 11:59:11;;;;;;;6.65;3.17;;;;;;;7.18;69.73;98538.53;6162562;23;20083;-65
2022/04/05 12:01:56;;;;;;;4.38;2.47;;;;;;;7.23;70.34;98547.16;6141877;23;20410;-64
2022/04/05 12:04:40;;;;;;;6.63;2.80;;;;;;;7.25;70.94;98555.03;6194278;23;20350;-63
2022/04/05 12:07:25;;;;;;;4.47;3.08;;;;;;;7.48;69.48;98542.13;6193128;23;20087;-65
2022/04/05 12:10:09;;;;;;;4.10;2.55;;;;;;;6.79;70.79;98494.75;6192795;23;20027;-62
2022/04/05 12:12:55;;;;;;;4.80;2.60;;;;;;;7.08;73.78;98538.81;6181918;23;20040;-65
2022/04/05 12:15:39;;;;;;;5.13;3.00;;;;;;;6.72;74.19;98524.78;6169575;23;20103;-64
2022/04/05 12:18:26;;;;;;;5.13;3.05;;;;;;;6.93;72.05;98532.13;6191805;23;20031;-63
2022/04/05 12:21:10;;;;;;;8.43;2.55;;;;;;;6.84;71.54;98571.88;6193026;23;20028;-63
2022/04/05 12:23:56;;;;;;;4.63;2.85;;;;;;;6.01;72.79;98425.59;6193770;23;20032;-63
2022/04/05 12:26:41;;;;;;;6.07;3.00;;;;;;;6.83;72.87;98524.50;6194062;23;20347;-64
2022/04/05 12:29:30;;;;;;;4.10;2.92;;;;;;;7.11;71.46;98539.59;6192939;23;20097;-63
2022/04/05 12:32:15;;;;;;;3.80;2.35;;;;;;;6.77;71.82;98543.97;6194331;23;20059;-64
2022/04/05 12:34:59;;;;;;;6.32;2.70;;;;;;;6.54;73.24;98530.50;6194115;23;20071;-66
2022/04/05 12:37:44;;;;;;;4.60;3.20;;;;;;;6.32;75.63;98492.41;6141387;23;20075;-66
2022/04/05 12:40:42;;;;;;;5.93;3.08;;;;;;;6.44;76.91;98464.94;6162199;23;20119;-66
2022/04/05 12:43:27;;;;;;;4.85;2.85;;;;;;;6.70;77.13;98502.00;6162734;23;20028;-65
2022/04/05 12:46:14;;;;;;;6.15;3.00;;;;;;;6.82;77.00;98488.53;6201889;23;20031;-65
2022/04/05 12:49:14;;;;;;;7.40;3.35;;;;;;;7.14;74.76;98483.28;6223465;23;20078;-65
2022/04/05 12:52:08;;;;;;;4.72;3.30;;;;;;;7.39;73.09;98450.94;6189000;23;20074;-65
2022/04/05 12:54:58;;;;;;;3.70;2.65;;;;;;;7.15;71.13;98492.91;6207367;23;20473;-67
2022/04/05 12:57:51;;;;;;;6.18;3.25;;;;;;;7.15;72.73;98499.06;6165126;23;20050;-67
2022/04/05 13:00:46;;;;;;;5.75;3.40;;;;;;;6.99;74.60;98471.38;6183934;23;20501;-66
2022/04/05 13:03:31;;;;;;;7.78;3.45;;;;;;;6.72;76.01;98487.91;6218062;23;20063;-64
2022/04/05 13:06:27;;;;;;;6.13;3.75;;;;;;;7.01;78.01;98477.47;6219634;23;20086;-66
2022/04/05 13:09:17;;;;;;;6.28;3.15;;;;;;;6.76;77.49;98479.00;6185273;23;20108;-64
2022/04/05 13:12:15;;;;;;;6.35;3.42;;;;;;;7.05;77.28;98471.25;6208104;23;20128;-66
2022/04/05 13:15:11;;;;;;;5.25;3.42;;;;;;;6.81;76.35;98476.28;6186785;23;20368;-65
2022/04/05 13:18:15;;;;;;;7.78;3.65;;;;;;;6.89;76.30;98503.28;6220321;23;20314;-65
2022/04/05 13:21:03;;;;;;;4.75;2.97;;;;;;;6.48;77.19;98470.06;6205843;23;20135;-64